createdAt,value
2019-01-30T00:01:34.911Z,8.37
2019-01-30T00:04:25.317Z,8.73
2019-01-30T00:07:15.337Z,8.90
2019-01-30T00:10:07.249Z,10.00
2019-01-30T00:12:57.537Z,9.63
2019-01-30T00:15:56.231Z,9.70
2019-01-30T00:18:40.156Z,10.00
2019-01-30T00:21:30.261Z,10.27
2019-01-30T00:24:20.638Z,9.90
2019-01-30T00:27:10.763Z,11.27
2019-01-30T00:30:04.016Z,11.60
2019-01-30T00:32:53.837Z,11.53
2019-01-30T00:35:43.762Z,11.00
2019-01-30T00:38:34.108Z,11.13
2019-01-30T00:41:25.453Z,11.87
2019-01-30T00:44:15.489Z,12.80
2019-01-30T00:47:15.453Z,10.77
2019-01-30T00:49:57.589Z,10.93
2019-01-30T00:52:47.609Z,11.60
2019-01-30T00:55:37.826Z,10.93
2019-01-30T00:58:27.858Z,12.40
2019-01-30T01:01:17.950Z,11.80
2019-01-30T01:04:08.573Z,12.63
2019-01-30T01:06:59.341Z,14.20
2019-01-30T01:09:49.493Z,14.47
2019-01-30T01:12:39.585Z,15.63
2019-01-30T01:15:29.825Z,15.53
2019-01-30T01:18:21.586Z,14.67
2019-01-30T01:21:12.374Z,15.80
2019-01-30T01:24:02.517Z,16.23
2019-01-30T01:26:52.919Z,15.67
2019-01-30T01:29:43.130Z,16.37
2019-01-30T01:32:33.142Z,17.87
2019-01-30T01:35:23.338Z,17.47
2019-01-30T01:38:13.318Z,16.83
2019-01-30T01:41:03.678Z,15.83
2019-01-30T01:43:53.697Z,16.27
2019-01-30T01:46:44.042Z,15.53
2019-01-30T01:49:34.250Z,14.80
2019-01-30T01:52:24.630Z,15.37
2019-01-30T01:55:15.254Z,15.93
2019-01-30T01:58:06.117Z,15.03
2019-01-30T02:00:56.426Z,15.13
2019-01-30T02:03:46.413Z,15.80
2019-01-30T02:06:36.303Z,15.10
2019-01-30T02:09:27.253Z,15.57
2019-01-30T02:12:17.338Z,15.20
2019-01-30T02:15:10.225Z,13.70
2019-01-30T02:18:00.542Z,14.60
2019-01-30T02:20:50.901Z,13.43
2019-01-30T02:23:40.970Z,13.77
2019-01-30T02:26:31.414Z,14.80
2019-01-30T02:29:21.837Z,14.23
2019-01-30T02:32:12.127Z,14.27
2019-01-30T02:35:02.011Z,13.97
2019-01-30T02:37:52.754Z,13.57
2019-01-30T02:40:42.979Z,13.83
2019-01-30T02:43:33.339Z,14.43
2019-01-30T02:46:23.596Z,14.37
2019-01-30T02:49:13.882Z,13.43
2019-01-30T02:52:04.266Z,13.63
2019-01-30T02:54:54.518Z,13.03
2019-01-30T02:57:45.542Z,13.33
2019-01-30T03:00:37.726Z,13.77
2019-01-30T03:03:28.646Z,14.17
2019-01-30T03:06:18.965Z,14.03
2019-01-30T03:09:09.415Z,14.13
2019-01-30T03:11:59.725Z,14.30
2019-01-30T03:14:50.097Z,14.37
2019-01-30T03:17:40.561Z,15.03
2019-01-30T03:20:30.914Z,14.47
2019-01-30T03:23:21.306Z,14.27
2019-01-30T03:26:11.811Z,15.00
2019-01-30T03:29:02.427Z,14.50
2019-01-30T03:31:52.652Z,14.53
2019-01-30T03:34:42.837Z,14.87
2019-01-30T03:37:32.845Z,15.87
2019-01-30T03:40:23.258Z,16.27
2019-01-30T03:43:13.514Z,14.90
2019-01-30T03:46:03.578Z,13.57
2019-01-30T03:48:54.427Z,14.50
2019-01-30T03:51:44.961Z,14.10
2019-01-30T03:54:34.893Z,14.03
2019-01-30T03:57:25.106Z,13.90
2019-01-30T04:00:20.834Z,14.50
2019-01-30T04:03:11.849Z,14.60
2019-01-30T04:06:03.922Z,16.17
2019-01-30T04:08:54.207Z,13.97
2019-01-30T04:11:44.262Z,15.50
2019-01-30T04:14:34.614Z,14.93
2019-01-30T04:17:25.118Z,14.57
2019-01-30T04:20:17.701Z,14.97
2019-01-30T04:23:08.158Z,15.33
2019-01-30T04:25:58.214Z,15.53
2019-01-30T04:28:48.302Z,15.97
2019-01-30T04:31:38.693Z,17.00
2019-01-30T04:34:28.951Z,17.33
2019-01-30T04:37:18.922Z,18.47
2019-01-30T04:40:11.997Z,16.87
2019-01-30T04:43:02.357Z,16.10
2019-01-30T04:45:52.275Z,16.37
2019-01-30T04:48:42.590Z,14.87
2019-01-30T04:51:33.319Z,16.57
2019-01-30T04:54:23.859Z,15.87
2019-01-30T04:57:14.858Z,17.37
2019-01-30T05:00:06.230Z,15.87
2019-01-30T05:02:56.779Z,15.60
2019-01-30T05:05:47.290Z,15.27
2019-01-30T05:08:37.495Z,17.10
2019-01-30T05:11:27.946Z,15.87
2019-01-30T05:14:17.991Z,16.30
2019-01-30T05:17:09.394Z,15.70
2019-01-30T05:19:59.632Z,15.37
2019-01-30T05:22:50.006Z,15.53
2019-01-30T05:25:40.798Z,16.20
2019-01-30T05:28:31.161Z,15.40
2019-01-30T05:31:22.018Z,14.77
2019-01-30T05:34:12.838Z,13.23
2019-01-30T05:37:03.039Z,14.97
2019-01-30T05:39:53.347Z,13.53
2019-01-30T05:42:43.546Z,14.83
2019-01-30T05:45:33.699Z,14.87
2019-01-30T05:48:24.054Z,13.97
2019-01-30T05:51:14.400Z,14.20
2019-01-30T05:54:04.967Z,13.63
2019-01-30T05:56:55.254Z,15.60
2019-01-30T05:59:45.559Z,15.23
2019-01-30T06:02:35.950Z,15.00
2019-01-30T06:05:26.169Z,14.70
2019-01-30T06:08:16.494Z,15.13
2019-01-30T06:11:07.242Z,16.17
2019-01-30T06:13:57.493Z,16.30
2019-01-30T06:16:47.454Z,16.43
2019-01-30T06:19:38.599Z,16.87
2019-01-30T06:22:28.590Z,17.07
2019-01-30T06:25:18.676Z,16.13
2019-01-30T06:28:08.958Z,16.90
2019-01-30T06:30:58.993Z,19.80
2019-01-30T06:33:48.938Z,18.57
2019-01-30T06:36:39.266Z,17.97
2019-01-30T06:39:29.569Z,21.03
2019-01-30T06:42:19.765Z,19.77
2019-01-30T06:45:09.841Z,20.20
2019-01-30T06:47:59.942Z,18.43
2019-01-30T06:50:50.142Z,18.53
2019-01-30T06:53:40.337Z,17.40
2019-01-30T06:56:30.354Z,18.50
2019-01-30T06:59:20.257Z,19.23
2019-01-30T07:02:10.650Z,19.17
2019-01-30T07:05:00.955Z,18.23
2019-01-30T07:07:51.301Z,19.63
2019-01-30T07:10:41.441Z,20.17
2019-01-30T07:13:31.474Z,18.77
2019-01-30T07:16:22.090Z,18.63
2019-01-30T07:19:12.574Z,18.50
2019-01-30T07:22:02.862Z,16.67
2019-01-30T07:24:53.197Z,18.07
2019-01-30T07:27:43.521Z,18.10
2019-01-30T07:30:35.441Z,19.33
2019-01-30T07:33:25.809Z,18.87
2019-01-30T07:36:16.505Z,19.73
2019-01-30T07:39:09.844Z,17.93
2019-01-30T07:41:59.943Z,17.77
2019-01-30T07:44:51.118Z,18.03
2019-01-30T07:47:41.183Z,16.57
2019-01-30T07:50:31.954Z,16.67
2019-01-30T07:53:21.922Z,16.87
2019-01-30T07:56:12.306Z,15.13
2019-01-30T07:59:02.759Z,15.57
2019-01-30T08:01:52.946Z,16.13
2019-01-30T08:04:43.185Z,14.50
2019-01-30T08:07:33.413Z,15.70
2019-01-30T08:10:23.720Z,16.23
2019-01-30T08:13:13.735Z,15.23
2019-01-30T08:16:04.074Z,15.63
2019-01-30T08:18:54.469Z,14.93
2019-01-30T08:21:44.493Z,15.00
2019-01-30T08:24:34.797Z,15.53
2019-01-30T08:27:25.217Z,14.70
2019-01-30T08:30:26.802Z,15.60
2019-01-30T08:33:17.621Z,17.07
2019-01-30T08:36:07.521Z,14.80
2019-01-30T08:38:57.822Z,14.37
2019-01-30T08:41:48.126Z,13.77
2019-01-30T08:44:46.851Z,12.03
2019-01-30T08:47:30.050Z,11.10
2019-01-30T08:50:20.511Z,11.43
2019-01-30T08:53:10.734Z,10.90
2019-01-30T08:56:00.945Z,11.03
2019-01-30T08:58:51.102Z,9.97
2019-01-30T09:01:41.474Z,9.47
2019-01-30T09:04:31.571Z,9.37
2019-01-30T09:07:21.897Z,9.03
2019-01-30T09:10:15.247Z,9.37
2019-01-30T09:13:05.478Z,8.50
2019-01-30T09:15:55.746Z,7.67
2019-01-30T09:18:46.063Z,7.63
2019-01-30T09:21:36.510Z,7.00
2019-01-30T09:24:26.742Z,6.57
2019-01-30T09:27:16.666Z,6.07
2019-01-30T09:30:11.194Z,5.73
2019-01-30T09:33:01.619Z,5.07
2019-01-30T09:35:51.617Z,6.10
2019-01-30T09:38:41.789Z,5.27
2019-01-30T09:41:31.795Z,4.70
2019-01-30T09:44:22.133Z,4.37
2019-01-30T09:47:12.607Z,4.30
2019-01-30T09:50:02.795Z,4.27
2019-01-30T09:52:54.446Z,3.73
2019-01-30T09:55:44.688Z,4.60
2019-01-30T09:58:35.547Z,4.07
2019-01-30T10:01:25.863Z,4.53
2019-01-30T10:04:16.078Z,4.57
2019-01-30T10:07:06.358Z,5.40
2019-01-30T10:09:56.604Z,4.73
2019-01-30T10:12:46.903Z,5.07
2019-01-30T10:15:42.429Z,4.80
2019-01-30T10:18:34.142Z,4.93
2019-01-30T10:21:24.230Z,4.50
2019-01-30T10:24:14.643Z,5.53
2019-01-30T10:27:05.006Z,5.63
2019-01-30T10:29:55.250Z,5.13
2019-01-30T10:32:45.506Z,6.43
2019-01-30T10:35:35.579Z,4.73
2019-01-30T10:38:26.370Z,5.63
2019-01-30T10:41:16.985Z,6.10
2019-01-30T10:44:07.186Z,5.57
2019-01-30T10:46:57.806Z,5.50
2019-01-30T10:49:47.674Z,5.87
2019-01-30T10:52:38.066Z,6.60
2019-01-30T10:55:30.359Z,6.80
2019-01-30T10:58:20.577Z,5.93
2019-01-30T11:01:10.890Z,5.57
2019-01-30T11:04:00.986Z,5.07
2019-01-30T11:06:50.995Z,5.13
2019-01-30T11:09:41.402Z,4.90
2019-01-30T11:12:31.970Z,5.30
2019-01-30T11:15:23.874Z,5.43
2019-01-30T11:18:15.650Z,4.70
2019-01-30T11:21:06.254Z,5.50
2019-01-30T11:23:56.266Z,3.80
2019-01-30T11:26:46.581Z,4.07
2019-01-30T11:29:36.482Z,3.50
2019-01-30T11:32:26.849Z,3.93
2019-01-30T11:35:17.278Z,3.83
2019-01-30T11:38:09.047Z,3.40
2019-01-30T11:41:00.872Z,4.10
2019-01-30T11:43:51.534Z,3.67
2019-01-30T11:46:42.173Z,3.27
2019-01-30T11:49:34.172Z,3.10
2019-01-30T11:52:24.174Z,3.67
2019-01-30T11:55:15.106Z,3.77
2019-01-30T11:58:06.162Z,3.07
2019-01-30T12:01:05.562Z,3.70
2019-01-30T12:03:55.846Z,4.03
2019-01-30T12:06:46.023Z,3.57
2019-01-30T12:09:36.396Z,3.10
2019-01-30T12:12:27.628Z,2.97
2019-01-30T12:15:19.494Z,3.77
2019-01-30T12:18:09.564Z,3.20
2019-01-30T12:20:59.692Z,3.50
2019-01-30T12:23:50.200Z,3.50
2019-01-30T12:26:40.490Z,3.57
2019-01-30T12:29:31.277Z,3.23
2019-01-30T12:32:21.449Z,4.10
2019-01-30T12:35:11.594Z,3.10
2019-01-30T12:38:01.562Z,3.60
2019-01-30T12:40:51.582Z,3.30
2019-01-30T12:43:41.609Z,3.23
2019-01-30T12:46:32.018Z,3.13
2019-01-30T12:49:22.494Z,3.77
2019-01-30T12:52:12.451Z,5.47
2019-01-30T12:55:02.478Z,6.73
2019-01-30T12:57:53.373Z,5.20
2019-01-30T13:00:43.434Z,4.30
2019-01-30T13:03:33.694Z,3.20
2019-01-30T13:06:24.097Z,3.77
2019-01-30T13:09:14.511Z,3.40
2019-01-30T13:12:04.718Z,3.47
2019-01-30T13:14:55.113Z,3.43
2019-01-30T13:17:47.279Z,3.20
2019-01-30T13:20:37.602Z,3.57
2019-01-30T13:23:27.825Z,3.93
2019-01-30T13:26:17.777Z,3.17
2019-01-30T13:29:07.973Z,2.93
2019-01-30T13:31:58.395Z,3.40
2019-01-30T13:34:49.209Z,2.93
2019-01-30T13:37:39.328Z,2.83
2019-01-30T13:40:32.125Z,2.80
2019-01-30T13:43:22.655Z,2.97
2019-01-30T13:46:12.995Z,2.90
2019-01-30T13:49:03.920Z,2.80
2019-01-30T13:51:54.712Z,2.80
2019-01-30T13:54:44.801Z,3.07
2019-01-30T13:57:35.239Z,2.73
2019-01-30T14:00:31.134Z,2.97
2019-01-30T14:03:21.178Z,3.23
2019-01-30T14:06:12.282Z,3.27
2019-01-30T14:09:03.196Z,3.57
2019-01-30T14:11:53.837Z,3.97
2019-01-30T14:14:43.786Z,3.60
2019-01-30T14:17:33.970Z,3.47
2019-01-30T14:20:24.307Z,3.23
2019-01-30T14:23:14.638Z,3.70
2019-01-30T14:26:05.038Z,4.10
2019-01-30T14:28:56.321Z,3.50
2019-01-30T14:31:46.582Z,3.43
2019-01-30T14:34:36.642Z,3.50
2019-01-30T14:37:27.102Z,3.47
2019-01-30T14:40:18.405Z,3.67
2019-01-30T14:43:09.313Z,3.20
2019-01-30T14:45:59.689Z,3.47
2019-01-30T14:48:49.777Z,3.10
2019-01-30T14:51:40.005Z,3.07
2019-01-30T14:54:30.353Z,3.30
2019-01-30T14:57:20.616Z,3.33
2019-01-30T15:00:20.521Z,3.50
2019-01-30T15:03:10.556Z,3.30
2019-01-30T15:06:01.344Z,2.90
2019-01-30T15:08:51.460Z,3.30
2019-01-30T15:11:41.734Z,3.90
2019-01-30T15:14:31.969Z,3.80
2019-01-30T15:17:22.779Z,3.00
2019-01-30T15:20:16.049Z,2.63
2019-01-30T15:23:08.650Z,3.20
2019-01-30T15:25:58.581Z,3.40
2019-01-30T15:28:48.749Z,3.57
2019-01-30T15:31:39.014Z,4.00
2019-01-30T15:34:29.223Z,4.53
2019-01-30T15:37:19.567Z,4.30
2019-01-30T15:40:11.397Z,5.80
2019-01-30T15:43:01.595Z,5.73
2019-01-30T15:45:51.991Z,7.60
2019-01-30T15:48:42.389Z,13.67
2019-01-30T15:51:33.170Z,5.47
2019-01-30T15:54:23.997Z,4.50
2019-01-30T15:57:13.912Z,4.60
2019-01-30T16:00:05.113Z,5.97
2019-01-30T16:02:55.162Z,6.03
2019-01-30T16:05:45.945Z,5.43
2019-01-30T16:08:36.476Z,5.13
2019-01-30T16:11:26.490Z,5.30
2019-01-30T16:14:17.251Z,5.47
2019-01-30T16:17:07.579Z,5.43
2019-01-30T16:19:57.570Z,5.50
2019-01-30T16:22:47.742Z,5.03
2019-01-30T16:25:37.809Z,6.10
2019-01-30T16:28:28.401Z,5.20
2019-01-30T16:31:18.454Z,5.73
2019-01-30T16:34:08.503Z,6.13
2019-01-30T16:37:00.007Z,5.93
2019-01-30T16:39:50.186Z,7.40
2019-01-30T16:42:40.522Z,7.87
2019-01-30T16:45:30.924Z,16.20
2019-01-30T16:48:21.186Z,10.83
2019-01-30T16:51:12.749Z,8.63
2019-01-30T16:54:03.031Z,8.30
2019-01-30T16:56:53.380Z,9.40
2019-01-30T16:59:43.622Z,8.13
2019-01-30T17:02:34.018Z,8.30
2019-01-30T17:05:24.312Z,8.73
2019-01-30T17:08:14.542Z,8.63
2019-01-30T17:11:05.634Z,9.53
2019-01-30T17:13:56.079Z,8.60
2019-01-30T17:16:46.048Z,9.07
2019-01-30T17:19:36.822Z,8.93
2019-01-30T17:22:27.106Z,9.30
2019-01-30T17:25:17.693Z,9.87
2019-01-30T17:28:08.009Z,9.20
2019-01-30T17:31:08.161Z,9.63
2019-01-30T17:33:58.555Z,9.13
2019-01-30T17:36:48.568Z,9.93
2019-01-30T17:39:39.888Z,12.53
2019-01-30T17:42:30.198Z,17.07
2019-01-30T17:45:20.518Z,33.77
2019-01-30T17:48:11.937Z,46.87
2019-01-30T17:51:02.106Z,37.73
2019-01-30T17:53:52.301Z,17.40
2019-01-30T17:56:42.833Z,16.33
2019-01-30T17:59:33.162Z,20.63
2019-01-30T18:02:23.634Z,16.83
2019-01-30T18:05:14.017Z,17.47
2019-01-30T18:08:04.305Z,17.63
2019-01-30T18:10:54.618Z,14.27
2019-01-30T18:13:45.178Z,14.53
2019-01-30T18:16:35.723Z,14.20
2019-01-30T18:19:25.937Z,13.67
2019-01-30T18:22:16.012Z,12.57
2019-01-30T18:25:07.633Z,11.83
2019-01-30T18:27:57.846Z,11.67
2019-01-30T18:30:48.045Z,14.43
2019-01-30T18:33:38.441Z,11.50
2019-01-30T18:36:29.046Z,12.43
2019-01-30T18:39:19.605Z,11.57
2019-01-30T18:42:09.826Z,10.83
2019-01-30T18:45:00.307Z,10.30
2019-01-30T18:47:50.538Z,10.37
2019-01-30T18:50:40.627Z,9.37
2019-01-30T18:53:30.551Z,9.73
2019-01-30T18:56:20.871Z,9.63
2019-01-30T18:59:11.010Z,8.63
2019-01-30T19:02:01.491Z,9.23
2019-01-30T19:04:52.034Z,8.93
2019-01-30T19:07:42.046Z,10.93
2019-01-30T19:10:32.023Z,11.53
2019-01-30T19:13:22.062Z,10.07
2019-01-30T19:16:12.181Z,11.63
2019-01-30T19:19:03.007Z,12.10
2019-01-30T19:21:53.350Z,12.93
2019-01-30T19:24:43.659Z,11.80
2019-01-30T19:27:33.899Z,12.70
2019-01-30T19:30:26.226Z,14.43
2019-01-30T19:33:16.758Z,15.23
2019-01-30T19:36:07.126Z,13.70
2019-01-30T19:38:57.434Z,12.27
2019-01-30T19:41:50.240Z,12.23
2019-01-30T19:44:40.218Z,14.50
2019-01-30T19:47:30.584Z,15.93
2019-01-30T19:50:25.942Z,14.57
2019-01-30T19:53:16.270Z,15.40
2019-01-30T19:56:06.378Z,14.77
2019-01-30T19:58:57.234Z,14.10
2019-01-30T20:01:47.290Z,16.57
2019-01-30T20:04:37.285Z,18.33
2019-01-30T20:07:27.506Z,18.77
2019-01-30T20:10:20.556Z,16.47
2019-01-30T20:13:11.038Z,16.00
2019-01-30T20:16:01.254Z,16.10
2019-01-30T20:18:52.446Z,15.20
2019-01-30T20:21:42.745Z,16.30
2019-01-30T20:24:33.224Z,15.97
2019-01-30T20:27:23.266Z,16.03
2019-01-30T20:30:16.290Z,17.00
2019-01-30T20:33:06.961Z,17.83
2019-01-30T20:35:57.013Z,17.00
2019-01-30T20:38:47.114Z,17.93
2019-01-30T20:41:37.586Z,17.13
2019-01-30T20:44:27.934Z,18.90
2019-01-30T20:47:18.230Z,19.07
2019-01-30T20:50:11.686Z,18.43
2019-01-30T20:53:01.747Z,17.57
2019-01-30T20:55:51.826Z,18.73
2019-01-30T20:58:42.491Z,17.70
2019-01-30T21:01:34.130Z,18.13
2019-01-30T21:04:24.322Z,19.53
2019-01-30T21:07:14.350Z,28.70
2019-01-30T21:10:05.641Z,40.23
2019-01-30T21:12:55.619Z,46.67
2019-01-30T21:15:45.797Z,46.77
2019-01-30T21:18:36.082Z,28.87
2019-01-30T21:21:26.095Z,30.27
2019-01-30T21:24:16.698Z,27.17
2019-01-30T21:27:07.098Z,20.77
2019-01-30T21:29:57.262Z,23.07
2019-01-30T21:32:47.986Z,22.07
2019-01-30T21:35:38.442Z,20.77
2019-01-30T21:38:28.694Z,22.00
2019-01-30T21:41:18.843Z,21.07
2019-01-30T21:44:09.557Z,22.00
2019-01-30T21:47:01.438Z,22.87
2019-01-30T21:49:51.186Z,21.97
2019-01-30T21:52:41.580Z,21.27
2019-01-30T21:55:31.613Z,22.23
2019-01-30T21:58:21.878Z,22.77
2019-01-30T22:01:12.014Z,23.60
2019-01-30T22:04:02.571Z,29.63
2019-01-30T22:06:52.853Z,26.70
2019-01-30T22:09:43.201Z,24.07
2019-01-30T22:12:33.546Z,24.20
2019-01-30T22:15:23.601Z,21.13
2019-01-30T22:18:13.937Z,18.67
2019-01-30T22:21:03.950Z,20.77
2019-01-30T22:24:04.998Z,21.63
2019-01-30T22:26:45.715Z,22.77
2019-01-30T22:29:35.961Z,17.17
2019-01-30T22:32:26.438Z,17.70
2019-01-30T22:35:16.635Z,19.30
2019-01-30T22:38:12.617Z,18.43
2019-01-30T22:40:59.369Z,20.70
2019-01-30T22:43:49.881Z,23.33
2019-01-30T22:46:40.147Z,25.47
2019-01-30T22:49:30.450Z,23.53
2019-01-30T22:52:20.778Z,23.50
2019-01-30T22:55:13.249Z,25.47
2019-01-30T22:58:03.525Z,24.30
2019-01-30T23:01:25.682Z,21.70
2019-01-30T23:04:50.103Z,21.50
2019-01-30T23:08:08.553Z,22.20
2019-01-30T23:11:33.635Z,23.30
2019-01-30T23:14:36.638Z,23.17
2019-01-30T23:17:57.340Z,20.10
2019-01-30T23:20:54.913Z,20.60
2019-01-30T23:24:14.454Z,22.03
2019-01-30T23:27:26.690Z,22.60
2019-01-30T23:30:56.162Z,22.03
2019-01-30T23:34:15.902Z,22.73
2019-01-30T23:37:41.425Z,22.27
2019-01-30T23:40:52.746Z,19.77
2019-01-30T23:44:16.493Z,19.57
2019-01-30T23:47:40.019Z,20.07
2019-01-30T23:50:45.610Z,19.20
2019-01-30T23:54:13.025Z,20.37
2019-01-30T23:57:37.115Z,21.00
